sensor_id;sensor_type;location;lat;lon;timestamp;pressure;altitude;pressure_sealevel;temperature;humidity
22333;BME280;11334;36.986;-121.936;2022-10-16T00:00:31;100937.00;;;18.19;75.00
22333;BME280;11334;36.986;-121.936;2022-10-16T00:02:58;100938.22;;;18.23;74.49
22333;BME280;11334;36.986;-121.936;2022-10-16T00:05:24;100936.41;;;18.24;74.30
22333;BME280;11334;36.986;-121.936;2022-10-16T00:07:50;100937.22;;;18.24;74.94
22333;BME280;11334;36.986;-121.936;2022-10-16T00:10:16;100933.72;;;18.24;75.21
22333;BME280;11334;36.986;-121.936;2022-10-16T00:12:43;100939.91;;;18.24;75.02
22333;BME280;11334;36.986;-121.936;2022-10-16T00:15:09;100938.66;;;18.27;74.92
22333;BME280;11334;36.986;-121.936;2022-10-16T00:17:35;100926.72;;;18.29;73.92
22333;BME280;11334;36.986;-121.936;2022-10-16T00:20:02;100935.38;;;18.31;74.49
22333;BME280;11334;36.986;-121.936;2022-10-16T00:22:28;100934.13;;;18.27;75.12
22333;BME280;11334;36.986;-121.936;2022-10-16T00:24:54;100929.16;;;18.24;74.80
22333;BME280;11334;36.986;-121.936;2022-10-16T00:27:21;100915.75;;;18.24;74.71
22333;BME280;11334;36.986;-121.936;2022-10-16T00:29:51;100931.44;;;18.27;74.71
22333;BME280;11334;36.986;-121.936;2022-10-16T00:32:18;100927.94;;;18.27;74.50
22333;BME280;11334;36.986;-121.936;2022-10-16T00:34:44;100932.25;;;18.21;74.95
22333;BME280;11334;36.986;-121.936;2022-10-16T00:37:11;100927.25;;;18.18;74.51
22333;BME280;11334;36.986;-121.936;2022-10-16T00:39:37;100923.97;;;18.16;74.90
22333;BME280;11334;36.986;-121.936;2022-10-16T00:42:04;100919.00;;;18.13;75.56
22333;BME280;11334;36.986;-121.936;2022-10-16T00:44:44;100924.34;;;18.13;75.73
22333;BME280;11334;36.986;-121.936;2022-10-16T00:49:52;100920.84;;;18.06;75.32
22333;BME280;11334;36.986;-121.936;2022-10-16T00:52:19;100927.59;;;18.02;75.33
22333;BME280;11334;36.986;-121.936;2022-10-16T00:54:46;100924.75;;;18.04;75.99
22333;BME280;11334;36.986;-121.936;2022-10-16T00:57:13;100928.03;;;18.06;75.49
22333;BME280;11334;36.986;-121.936;2022-10-16T00:59:41;100926.78;;;18.02;75.94
22333;BME280;11334;36.986;-121.936;2022-10-16T01:02:12;100928.63;;;18.02;75.98
22333;BME280;11334;36.986;-121.936;2022-10-16T01:04:44;100935.47;;;18.04;76.07
22333;BME280;11334;36.986;-121.936;2022-10-16T01:10:17;100938.16;;;18.04;75.91
22333;BME280;11334;36.986;-121.936;2022-10-16T01:15:56;100937.53;;;18.08;75.61
22333;BME280;11334;36.986;-121.936;2022-10-16T01:21:07;100942.09;;;18.08;75.55
22333;BME280;11334;36.986;-121.936;2022-10-16T01:26:40;100943.44;;;17.98;76.16
22333;BME280;11334;36.986;-121.936;2022-10-16T01:29:24;100949.03;;;18.02;76.09
22333;BME280;11334;36.986;-121.936;2022-10-16T01:32:04;100945.50;;;17.96;76.33
22333;BME280;11334;36.986;-121.936;2022-10-16T01:34:44;100940.53;;;17.93;77.03
22333;BME280;11334;36.986;-121.936;2022-10-16T01:37:16;100951.66;;;17.90;77.29
22333;BME280;11334;36.986;-121.936;2022-10-16T01:39:46;100939.25;;;17.89;77.61
22333;BME280;11334;36.986;-121.936;2022-10-16T01:42:25;100947.75;;;17.92;77.39
22333;BME280;11334;36.986;-121.936;2022-10-16T01:44:55;100941.75;;;17.90;77.47
22333;BME280;11334;36.986;-121.936;2022-10-16T01:47:23;100946.94;;;17.92;77.46
22333;BME280;11334;36.986;-121.936;2022-10-16T01:49:52;100941.34;;;17.93;77.72
22333;BME280;11334;36.986;-121.936;2022-10-16T01:52:22;100936.59;;;17.89;77.85
22333;BME280;11334;36.986;-121.936;2022-10-16T01:54:53;100955.59;;;17.94;77.48
22333;BME280;11334;36.986;-121.936;2022-10-16T01:57:21;100939.72;;;17.92;77.70
22333;BME280;11334;36.986;-121.936;2022-10-16T01:59:54;100944.25;;;17.92;77.46
22333;BME280;11334;36.986;-121.936;2022-10-16T02:02:22;100948.78;;;17.91;77.66
22333;BME280;11334;36.986;-121.936;2022-10-16T02:04:57;100948.59;;;17.93;77.66
22333;BME280;11334;36.986;-121.936;2022-10-16T02:07:25;100947.31;;;17.89;77.62
22333;BME280;11334;36.986;-121.936;2022-10-16T02:09:51;100949.81;;;17.90;77.54
22333;BME280;11334;36.986;-121.936;2022-10-16T02:12:30;100921.72;;;17.80;77.72
22333;BME280;11334;36.986;-121.936;2022-10-16T02:14:58;100938.44;;;17.88;77.53
22333;BME280;11334;36.986;-121.936;2022-10-16T02:17:24;100937.00;;;17.86;77.53
22333;BME280;11334;36.986;-121.936;2022-10-16T02:19:53;100940.50;;;17.86;77.17
22333;BME280;11334;36.986;-121.936;2022-10-16T02:22:39;100943.16;;;17.86;77.86
22333;BME280;11334;36.986;-121.936;2022-10-16T02:27:55;100950.41;;;17.86;77.56
22333;BME280;11334;36.986;-121.936;2022-10-16T02:30:33;100946.47;;;17.82;77.38
22333;BME280;11334;36.986;-121.936;2022-10-16T02:33:04;100953.91;;;17.86;77.87
22333;BME280;11334;36.986;-121.936;2022-10-16T02:35:31;100952.88;;;17.87;77.79
22333;BME280;11334;36.986;-121.936;2022-10-16T02:37:58;100961.13;;;17.86;77.87
22333;BME280;11334;36.986;-121.936;2022-10-16T02:40:25;100963.16;;;17.84;77.78
22333;BME280;11334;36.986;-121.936;2022-10-16T02:42:53;100962.56;;;17.88;77.46
22333;BME280;11334;36.986;-121.936;2022-10-16T02:45:21;100958.88;;;17.89;77.55
22333;BME280;11334;36.986;-121.936;2022-10-16T02:47:48;100960.13;;;17.87;77.28
22333;BME280;11334;36.986;-121.936;2022-10-16T02:50:14;100955.56;;;17.87;77.37
22333;BME280;11334;36.986;-121.936;2022-10-16T02:52:41;100960.72;;;17.89;77.49
22333;BME280;11334;36.986;-121.936;2022-10-16T02:55:07;100945.63;;;17.81;77.55
22333;BME280;11334;36.986;-121.936;2022-10-16T02:57:34;100961.94;;;17.86;77.54
22333;BME280;11334;36.986;-121.936;2022-10-16T03:00:03;100963.41;;;17.89;77.67
22333;BME280;11334;36.986;-121.936;2022-10-16T03:02:30;100956.56;;;17.86;77.77
22333;BME280;11334;36.986;-121.936;2022-10-16T03:04:56;100967.53;;;17.85;77.32
22333;BME280;11334;36.986;-121.936;2022-10-16T03:07:22;100965.84;;;17.84;77.58
22333;BME280;11334;36.986;-121.936;2022-10-16T03:09:48;100966.25;;;17.81;77.66
22333;BME280;11334;36.986;-121.936;2022-10-16T03:12:14;100963.56;;;17.81;77.47
22333;BME280;11334;36.986;-121.936;2022-10-16T03:14:41;100970.78;;;17.80;77.50
22333;BME280;11334;36.986;-121.936;2022-10-16T03:17:07;100970.97;;;17.79;77.74
22333;BME280;11334;36.986;-121.936;2022-10-16T03:19:33;100965.38;;;17.74;77.95
22333;BME280;11334;36.986;-121.936;2022-10-16T03:22:00;100963.53;;;17.74;77.42
22333;BME280;11334;36.986;-121.936;2022-10-16T03:24:26;100958.53;;;17.65;77.83
22333;BME280;11334;36.986;-121.936;2022-10-16T03:26:52;100955.25;;;17.70;77.63
22333;BME280;11334;36.986;-121.936;2022-10-16T03:29:19;100959.81;;;17.75;77.62
22333;BME280;11334;36.986;-121.936;2022-10-16T03:31:45;100959.63;;;17.77;77.84
22333;BME280;11334;36.986;-121.936;2022-10-16T03:34:11;100956.09;;;17.76;77.76
22333;BME280;11334;36.986;-121.936;2022-10-16T03:36:37;100963.78;;;17.79;77.18
22333;BME280;11334;36.986;-121.936;2022-10-16T03:39:03;100966.22;;;17.74;77.50
22333;BME280;11334;36.986;-121.936;2022-10-16T03:41:29;100968.28;;;17.79;77.31
22333;BME280;11334;36.986;-121.936;2022-10-16T03:43:56;100974.50;;;17.79;77.59
22333;BME280;11334;36.986;-121.936;2022-10-16T03:46:22;100971.19;;;17.77;77.69
22333;BME280;11334;36.986;-121.936;2022-10-16T03:48:48;100980.88;;;17.78;77.74
22333;BME280;11334;36.986;-121.936;2022-10-16T03:51:14;100971.59;;;17.74;77.39
22333;BME280;11334;36.986;-121.936;2022-10-16T03:53:40;100973.66;;;17.79;77.73
22333;BME280;11334;36.986;-121.936;2022-10-16T03:56:07;100978.44;;;17.83;77.31
22333;BME280;11334;36.986;-121.936;2022-10-16T03:58:33;100987.44;;;17.76;77.67
22333;BME280;11334;36.986;-121.936;2022-10-16T04:00:59;100982.53;;;17.79;77.82
22333;BME280;11334;36.986;-121.936;2022-10-16T04:03:25;100981.09;;;17.77;77.69
22333;BME280;11334;36.986;-121.936;2022-10-16T04:05:51;100990.78;;;17.78;77.94
22333;BME280;11334;36.986;-121.936;2022-10-16T04:08:17;100994.50;;;17.77;77.71
22333;BME280;11334;36.986;-121.936;2022-10-16T04:10:44;100991.81;;;17.77;77.49
22333;BME280;11334;36.986;-121.936;2022-10-16T04:13:11;101000.84;;;17.76;77.81
22333;BME280;11334;36.986;-121.936;2022-10-16T04:15:38;100988.50;;;17.75;77.86
22333;BME280;11334;36.986;-121.936;2022-10-16T04:18:05;100988.91;;;17.78;77.99
22333;BME280;11334;36.986;-121.936;2022-10-16T04:20:31;100993.63;;;17.76;77.91
22333;BME280;11334;36.986;-121.936;2022-10-16T04:22:58;100981.91;;;17.77;78.05
22333;BME280;11334;36.986;-121.936;2022-10-16T04:25:24;100985.16;;;17.73;78.14
22333;BME280;11334;36.986;-121.936;2022-10-16T04:27:52;100986.88;;;17.80;78.00
22333;BME280;11334;36.986;-121.936;2022-10-16T04:30:20;100990.59;;;17.79;77.92
22333;BME280;11334;36.986;-121.936;2022-10-16T04:32:52;100995.31;;;17.77;78.03
22333;BME280;11334;36.986;-121.936;2022-10-16T04:35:20;100998.63;;;17.79;78.12
22333;BME280;11334;36.986;-121.936;2022-10-16T04:37:46;100997.34;;;17.75;78.28
22333;BME280;11334;36.986;-121.936;2022-10-16T04:40:13;100998.19;;;17.76;78.10
22333;BME280;11334;36.986;-121.936;2022-10-16T04:42:40;100996.31;;;17.76;77.80
22333;BME280;11334;36.986;-121.936;2022-10-16T04:45:06;101004.56;;;17.75;77.84
22333;BME280;11334;36.986;-121.936;2022-10-16T04:47:33;100997.78;;;17.79;77.93
22333;BME280;11334;36.986;-121.936;2022-10-16T04:50:00;101005.22;;;17.77;78.08
22333;BME280;11334;36.986;-121.936;2022-10-16T04:52:28;101009.72;;;17.76;77.81
22333;BME280;11334;36.986;-121.936;2022-10-16T04:54:54;101014.06;;;17.77;77.97
22333;BME280;11334;36.986;-121.936;2022-10-16T04:57:26;101019.44;;;17.77;77.69
22333;BME280;11334;36.986;-121.936;2022-10-16T04:59:52;101020.06;;;17.79;77.97
22333;BME280;11334;36.986;-121.936;2022-10-16T05:02:19;101025.88;;;17.83;77.58
22333;BME280;11334;36.986;-121.936;2022-10-16T05:04:45;101032.25;;;17.82;77.84
22333;BME280;11334;36.986;-121.936;2022-10-16T05:07:11;101026.25;;;17.80;77.92
22333;BME280;11334;36.986;-121.936;2022-10-16T05:09:37;101030.59;;;17.81;77.66
22333;BME280;11334;36.986;-121.936;2022-10-16T05:12:04;101033.66;;;17.78;77.72
22333;BME280;11334;36.986;-121.936;2022-10-16T05:14:30;101040.63;;;17.72;77.98
22333;BME280;11334;36.986;-121.936;2022-10-16T05:16:56;101044.38;;;17.78;78.04
22333;BME280;11334;36.986;-121.936;2022-10-16T05:19:23;101049.94;;;17.76;78.14
22333;BME280;11334;36.986;-121.936;2022-10-16T05:21:49;101042.94;;;17.75;78.14
22333;BME280;11334;36.986;-121.936;2022-10-16T05:24:15;101042.53;;;17.78;78.05
22333;BME280;11334;36.986;-121.936;2022-10-16T05:26:41;101052.25;;;17.79;78.18
22333;BME280;11334;36.986;-121.936;2022-10-16T05:29:08;101044.56;;;17.76;77.95
22333;BME280;11334;36.986;-121.936;2022-10-16T05:31:34;101037.97;;;17.72;78.25
22333;BME280;11334;36.986;-121.936;2022-10-16T05:34:02;101043.09;;;17.74;77.92
22333;BME280;11334;36.986;-121.936;2022-10-16T05:36:28;101036.53;;;17.76;78.34
22333;BME280;11334;36.986;-121.936;2022-10-16T05:38:54;101038.38;;;17.76;78.41
22333;BME280;11334;36.986;-121.936;2022-10-16T05:41:20;101040.06;;;17.77;78.21
22333;BME280;11334;36.986;-121.936;2022-10-16T05:43:48;101042.09;;;17.75;78.69
22333;BME280;11334;36.986;-121.936;2022-10-16T05:46:14;101042.09;;;17.75;78.50
22333;BME280;11334;36.986;-121.936;2022-10-16T05:48:41;101047.06;;;17.78;78.21
22333;BME280;11334;36.986;-121.936;2022-10-16T05:51:09;101043.34;;;17.79;77.79
22333;BME280;11334;36.986;-121.936;2022-10-16T05:53:38;101044.78;;;17.75;77.85
22333;BME280;11334;36.986;-121.936;2022-10-16T05:56:05;101041.69;;;17.78;77.93
22333;BME280;11334;36.986;-121.936;2022-10-16T05:58:34;101039.84;;;17.78;77.88
22333;BME280;11334;36.986;-121.936;2022-10-16T06:01:06;101039.25;;;17.83;77.97
22333;BME280;11334;36.986;-121.936;2022-10-16T06:03:33;101034.31;;;17.80;77.88
22333;BME280;11334;36.986;-121.936;2022-10-16T06:06:28;101036.97;;;17.80;77.98
22333;BME280;11334;36.986;-121.936;2022-10-16T06:08:54;101035.31;;;17.79;77.76
22333;BME280;11334;36.986;-121.936;2022-10-16T06:11:26;101032.63;;;17.79;77.84
22333;BME280;11334;36.986;-121.936;2022-10-16T06:13:55;101033.47;;;17.79;77.64
22333;BME280;11334;36.986;-121.936;2022-10-16T06:16:26;101030.56;;;17.74;77.93
22333;BME280;11334;36.986;-121.936;2022-10-16T06:18:54;101029.53;;;17.75;78.60
22333;BME280;11334;36.986;-121.936;2022-10-16T06:21:23;101026.66;;;17.77;77.80
22333;BME280;11334;36.986;-121.936;2022-10-16T06:23:53;101033.03;;;17.76;78.14
22333;BME280;11334;36.986;-121.936;2022-10-16T06:26:23;101030.16;;;17.77;77.82
22333;BME280;11334;36.986;-121.936;2022-10-16T06:28:49;101020.66;;;17.75;78.08
22333;BME280;11334;36.986;-121.936;2022-10-16T06:31:16;101017.56;;;17.78;78.31
22333;BME280;11334;36.986;-121.936;2022-10-16T06:33:43;101020.03;;;17.73;78.33
22333;BME280;11334;36.986;-121.936;2022-10-16T06:36:14;101024.34;;;17.74;78.14
22333;BME280;11334;36.986;-121.936;2022-10-16T06:38:42;101029.34;;;17.77;78.04
22333;BME280;11334;36.986;-121.936;2022-10-16T06:41:12;101022.50;;;17.74;78.08
22333;BME280;11334;36.986;-121.936;2022-10-16T06:43:38;101032.19;;;17.75;77.98
22333;BME280;11334;36.986;-121.936;2022-10-16T06:46:06;101028.69;;;17.75;77.82
22333;BME280;11334;36.986;-121.936;2022-10-16T06:48:36;101032.19;;;17.75;77.63
22333;BME280;11334;36.986;-121.936;2022-10-16T06:51:16;101025.63;;;17.78;77.03
22333;BME280;11334;36.986;-121.936;2022-10-16T06:53:45;101032.25;;;17.82;76.63
22333;BME280;11334;36.986;-121.936;2022-10-16T06:56:14;101029.69;;;17.74;77.14
22333;BME280;11334;36.986;-121.936;2022-10-16T06:58:41;101031.16;;;17.76;77.08
22333;BME280;11334;36.986;-121.936;2022-10-16T07:01:08;101029.69;;;17.74;77.50
22333;BME280;11334;36.986;-121.936;2022-10-16T07:03:39;101028.25;;;17.71;77.67
22333;BME280;11334;36.986;-121.936;2022-10-16T07:06:06;101031.56;;;17.73;77.45
22333;BME280;11334;36.986;-121.936;2022-10-16T07:08:38;101033.84;;;17.76;77.79
22333;BME280;11334;36.986;-121.936;2022-10-16T07:11:08;101030.56;;;17.74;77.57
22333;BME280;11334;36.986;-121.936;2022-10-16T07:13:36;101033.25;;;17.74;77.08
22333;BME280;11334;36.986;-121.936;2022-10-16T07:18:32;101032.59;;;17.72;77.18
22333;BME280;11334;36.986;-121.936;2022-10-16T07:21:10;101040.66;;;17.79;76.69
22333;BME280;11334;36.986;-121.936;2022-10-16T07:23:37;101039.22;;;17.76;76.93
22333;BME280;11334;36.986;-121.936;2022-10-16T07:26:05;101034.25;;;17.73;77.42
22333;BME280;11334;36.986;-121.936;2022-10-16T07:28:32;101036.91;;;17.73;77.24
22333;BME280;11334;36.986;-121.936;2022-10-16T07:31:03;101038.84;;;17.79;77.08
22333;BME280;11334;36.986;-121.936;2022-10-16T07:33:31;101029.13;;;17.78;77.08
22333;BME280;11334;36.986;-121.936;2022-10-16T07:35:57;101025.63;;;17.78;77.17
22333;BME280;11334;36.986;-121.936;2022-10-16T07:38:23;101026.44;;;17.78;77.12
22333;BME280;11334;36.986;-121.936;2022-10-16T07:41:03;101024.97;;;17.76;77.37
22333;BME280;11334;36.986;-121.936;2022-10-16T07:43:30;101032.38;;;17.74;77.25
22333;BME280;11334;36.986;-121.936;2022-10-16T07:45:57;101026.19;;;17.73;77.38
22333;BME280;11334;36.986;-121.936;2022-10-16T07:48:28;101031.38;;;17.75;77.71
22333;BME280;11334;36.986;-121.936;2022-10-16T07:50:59;101025.19;;;17.74;77.52
22333;BME280;11334;36.986;-121.936;2022-10-16T07:53:26;101033.03;;;17.76;76.96
22333;BME280;11334;36.986;-121.936;2022-10-16T07:56:00;101036.34;;;17.78;76.94
22333;BME280;11334;36.986;-121.936;2022-10-16T07:58:28;101039.59;;;17.73;76.79
22333;BME280;11334;36.986;-121.936;2022-10-16T08:00:55;101044.78;;;17.75;76.74
22333;BME280;11334;36.986;-121.936;2022-10-16T08:03:22;101052.44;;;17.78;76.33
22333;BME280;11334;36.986;-121.936;2022-10-16T08:05:48;101056.75;;;17.79;76.25
22333;BME280;11334;36.986;-121.936;2022-10-16T08:08:15;101050.78;;;17.77;76.08
22333;BME280;11334;36.986;-121.936;2022-10-16T08:10:42;101056.75;;;17.79;76.60
22333;BME280;11334;36.986;-121.936;2022-10-16T08:13:08;101066.00;;;17.76;76.48
22333;BME280;11334;36.986;-121.936;2022-10-16T08:15:35;101075.50;;;17.72;77.04
22333;BME280;11334;36.986;-121.936;2022-10-16T08:18:03;101078.16;;;17.72;77.48
22333;BME280;11334;36.986;-121.936;2022-10-16T08:20:30;101065.41;;;17.74;76.77
22333;BME280;11334;36.986;-121.936;2022-10-16T08:22:57;101080.06;;;17.78;77.21
22333;BME280;11334;36.986;-121.936;2022-10-16T08:25:24;101084.19;;;17.81;76.84
22333;BME280;11334;36.986;-121.936;2022-10-16T08:27:50;101078.41;;;17.77;77.13
22333;BME280;11334;36.986;-121.936;2022-10-16T08:30:21;101087.47;;;17.76;77.36
22333;BME280;11334;36.986;-121.936;2022-10-16T08:32:48;101089.72;;;17.73;77.23
22333;BME280;11334;36.986;-121.936;2022-10-16T08:35:14;101085.16;;;17.73;77.04
22333;BME280;11334;36.986;-121.936;2022-10-16T08:37:42;101087.66;;;17.75;77.07
22333;BME280;11334;36.986;-121.936;2022-10-16T08:40:23;101087.66;;;17.75;77.21
22333;BME280;11334;36.986;-121.936;2022-10-16T08:45:44;101098.41;;;17.75;77.17
22333;BME280;11334;36.986;-121.936;2022-10-16T08:48:42;101105.63;;;17.74;76.89
22333;BME280;11334;36.986;-121.936;2022-10-16T08:51:03;101103.50;;;17.70;77.48
22333;BME280;11334;36.986;-121.936;2022-10-16T08:53:40;101108.47;;;17.73;77.59
22333;BME280;11334;36.986;-121.936;2022-10-16T08:56:08;101108.72;;;17.78;77.71
22333;BME280;11334;36.986;-121.936;2022-10-16T08:58:35;101110.13;;;17.74;77.39
22333;BME280;11334;36.986;-121.936;2022-10-16T09:01:04;101115.94;;;17.77;77.33
22333;BME280;11334;36.986;-121.936;2022-10-16T09:04:08;101109.13;;;17.75;77.17
22333;BME280;11334;36.986;-121.936;2022-10-16T09:06:59;101112.81;;;17.74;77.00
22333;BME280;11334;36.986;-121.936;2022-10-16T09:09:44;101114.41;;;17.69;76.88
22333;BME280;11334;36.986;-121.936;2022-10-16T09:12:20;101127.81;;;17.69;77.53
22333;BME280;11334;36.986;-121.936;2022-10-16T09:14:52;101124.31;;;17.68;77.56
22333;BME280;11334;36.986;-121.936;2022-10-16T09:17:37;101115.06;;;17.71;77.68
22333;BME280;11334;36.986;-121.936;2022-10-16T09:22:45;101117.91;;;17.69;77.67
22333;BME280;11334;36.986;-121.936;2022-10-16T09:25:17;101120.59;;;17.69;77.95
22333;BME280;11334;36.986;-121.936;2022-10-16T09:27:46;101124.13;;;17.70;77.97
22333;BME280;11334;36.986;-121.936;2022-10-16T09:30:16;101131.56;;;17.74;77.91
22333;BME280;11334;36.986;-121.936;2022-10-16T09:32:44;101118.16;;;17.74;77.60
22333;BME280;11334;36.986;-121.936;2022-10-16T09:35:21;101113.91;;;17.79;77.53
22333;BME280;11334;36.986;-121.936;2022-10-16T09:37:50;101115.13;;;17.77;77.38
22333;BME280;11334;36.986;-121.936;2022-10-16T09:40:45;101107.44;;;17.74;77.24
22333;BME280;11334;36.986;-121.936;2022-10-16T09:46:02;101110.50;;;17.71;77.53
22333;BME280;11334;36.986;-121.936;2022-10-16T09:48:38;101114.22;;;17.70;77.95
22333;BME280;11334;36.986;-121.936;2022-10-16T09:51:13;101119.38;;;17.71;77.30
22333;BME280;11334;36.986;-121.936;2022-10-16T09:53:44;101128.44;;;17.71;77.37
22333;BME280;11334;36.986;-121.936;2022-10-16T09:56:21;101130.75;;;17.73;77.13
22333;BME280;11334;36.986;-121.936;2022-10-16T09:58:56;101139.00;;;17.72;77.16
22333;BME280;11334;36.986;-121.936;2022-10-16T10:01:31;101146.00;;;17.73;77.28
22333;BME280;11334;36.986;-121.936;2022-10-16T10:03:58;101140.63;;;17.73;77.43
22333;BME280;11334;36.986;-121.936;2022-10-16T10:07:05;101146.81;;;17.73;77.61
22333;BME280;11334;36.986;-121.936;2022-10-16T10:09:49;101147.88;;;17.72;77.16
22333;BME280;11334;36.986;-121.936;2022-10-16T10:12:23;101148.88;;;17.71;77.25
22333;BME280;11334;36.986;-121.936;2022-10-16T10:15:07;101140.38;;;17.68;77.10
22333;BME280;11334;36.986;-121.936;2022-10-16T10:17:46;101151.94;;;17.69;77.59
22333;BME280;11334;36.986;-121.936;2022-10-16T10:20:29;101150.06;;;17.69;77.53
22333;BME280;11334;36.986;-121.936;2022-10-16T10:22:57;101150.94;;;17.70;77.60
22333;BME280;11334;36.986;-121.936;2022-10-16T10:31:38;101135.28;;;17.73;77.10
22333;BME280;11334;36.986;-121.936;2022-10-16T10:36:59;101139.56;;;17.68;77.84
22333;BME280;11334;36.986;-121.936;2022-10-16T10:39:38;101131.56;;;17.74;77.39
22333;BME280;11334;36.986;-121.936;2022-10-16T10:42:28;101139.00;;;17.72;77.41
22333;BME280;11334;36.986;-121.936;2022-10-16T10:47:55;101137.28;;;17.65;77.90
22333;BME280;11334;36.986;-121.936;2022-10-16T10:50:26;101138.09;;;17.65;77.90
22333;BME280;11334;36.986;-121.936;2022-10-16T10:53:29;101135.66;;;17.70;77.36
22333;BME280;11334;36.986;-121.936;2022-10-16T10:59:27;101144.94;;;17.68;77.30
22333;BME280;11334;36.986;-121.936;2022-10-16T11:07:28;101131.53;;;17.68;77.11
22333;BME280;11334;36.986;-121.936;2022-10-16T11:10:07;101133.00;;;17.70;76.90
22333;BME280;11334;36.986;-121.936;2022-10-16T11:12:45;101140.00;;;17.71;77.23
22333;BME280;11334;36.986;-121.936;2022-10-16T11:15:35;101139.00;;;17.72;76.98
22333;BME280;11334;36.986;-121.936;2022-10-16T11:18:17;101137.66;;;17.62;77.58
22333;BME280;11334;36.986;-121.936;2022-10-16T11:20:55;101142.44;;;17.66;78.10
22333;BME280;11334;36.986;-121.936;2022-10-16T11:23:55;101145.09;;;17.66;77.91
22333;BME280;11334;36.986;-121.936;2022-10-16T11:26:28;101145.75;;;17.68;77.74
22333;BME280;11334;36.986;-121.936;2022-10-16T11:28:56;101141.81;;;17.64;77.61
22333;BME280;11334;36.986;-121.936;2022-10-16T11:39:38;101139.13;;;17.64;77.74
22333;BME280;11334;36.986;-121.936;2022-10-16T11:42:25;101148.59;;;17.67;77.76
22333;BME280;11334;36.986;-121.936;2022-10-16T11:48:14;101145.09;;;17.66;77.94
22333;BME280;11334;36.986;-121.936;2022-10-16T11:53:42;101148.00;;;17.65;77.69
22333;BME280;11334;36.986;-121.936;2022-10-16T11:56:17;101143.38;;;17.59;77.87
22333;BME280;11334;36.986;-121.936;2022-10-16T11:58:52;101154.09;;;17.59;78.00
22333;BME280;11334;36.986;-121.936;2022-10-16T12:01:43;101159.72;;;17.64;77.99
22333;BME280;11334;36.986;-121.936;2022-10-16T12:04:33;101161.97;;;17.60;78.23
22333;BME280;11334;36.986;-121.936;2022-10-16T12:07:08;101166.53;;;17.66;77.17
22333;BME280;11334;36.986;-121.936;2022-10-16T12:09:38;101155.13;;;17.58;77.85
22333;BME280;11334;36.986;-121.936;2022-10-16T12:12:22;101162.16;;;17.59;78.12
22333;BME280;11334;36.986;-121.936;2022-10-16T12:15:03;101177.28;;;17.66;78.32
22333;BME280;11334;36.986;-121.936;2022-10-16T12:17:37;101167.16;;;17.62;77.99
22333;BME280;11334;36.986;-121.936;2022-10-16T12:23:02;101184.06;;;17.62;78.18
22333;BME280;11334;36.986;-121.936;2022-10-16T12:25:39;101183.41;;;17.60;78.26
22333;BME280;11334;36.986;-121.936;2022-10-16T12:30:41;101199.88;;;17.57;78.30
22333;BME280;11334;36.986;-121.936;2022-10-16T12:33:30;101199.06;;;17.57;78.20
22333;BME280;11334;36.986;-121.936;2022-10-16T12:35:59;101200.31;;;17.61;78.16
22333;BME280;11334;36.986;-121.936;2022-10-16T12:38:52;101198.03;;;17.58;77.94
22333;BME280;11334;36.986;-121.936;2022-10-16T12:41:33;101194.69;;;17.56;78.48
22333;BME280;11334;36.986;-121.936;2022-10-16T12:44:01;101205.88;;;17.59;78.05
22333;BME280;11334;36.986;-121.936;2022-10-16T12:51:42;101201.34;;;17.60;78.79
22333;BME280;11334;36.986;-121.936;2022-10-16T13:24:06;101226.72;;;17.64;79.05
22333;BME280;11334;36.986;-121.936;2022-10-16T13:29:07;101224.91;;;17.64;78.91
22333;BME280;11334;36.986;-121.936;2022-10-16T13:31:33;101232.94;;;17.64;79.00
22333;BME280;11334;36.986;-121.936;2022-10-16T13:34:00;101226.94;;;17.62;78.61
22333;BME280;11334;36.986;-121.936;2022-10-16T13:36:34;101232.09;;;17.64;78.40
22333;BME280;11334;36.986;-121.936;2022-10-16T13:41:57;101228.19;;;17.66;77.72
22333;BME280;11334;36.986;-121.936;2022-10-16T13:44:24;101215.47;;;17.54;77.76
22333;BME280;11334;36.986;-121.936;2022-10-16T13:47:00;101239.31;;;17.63;78.56
22333;BME280;11334;36.986;-121.936;2022-10-16T13:49:27;101238.03;;;17.59;78.91
22333;BME280;11334;36.986;-121.936;2022-10-16T13:51:58;101231.47;;;17.62;78.35
22333;BME280;11334;36.986;-121.936;2022-10-16T13:54:26;101238.66;;;17.61;78.41
22333;BME280;11334;36.986;-121.936;2022-10-16T13:56:54;101239.69;;;17.60;78.61
22333;BME280;11334;36.986;-121.936;2022-10-16T13:59:33;101239.50;;;17.62;78.62
22333;BME280;11334;36.986;-121.936;2022-10-16T14:02:05;101230.63;;;17.61;78.53
22333;BME280;11334;36.986;-121.936;2022-10-16T14:04:38;101232.03;;;17.57;78.74
22333;BME280;11334;36.986;-121.936;2022-10-16T14:07:05;101234.25;;;17.54;78.99
22333;BME280;11334;36.986;-121.936;2022-10-16T14:09:31;101221.88;;;17.53;79.09
22333;BME280;11334;36.986;-121.936;2022-10-16T14:12:09;101230.34;;;17.56;79.10
22333;BME280;11334;36.986;-121.936;2022-10-16T14:14:42;101235.16;;;17.61;78.69
22333;BME280;11334;36.986;-121.936;2022-10-16T14:17:18;101218.25;;;17.60;78.05
22333;BME280;11334;36.986;-121.936;2022-10-16T14:19:47;101228.31;;;17.58;78.63
22333;BME280;11334;36.986;-121.936;2022-10-16T14:24:55;101222.31;;;17.56;78.20
22333;BME280;11334;36.986;-121.936;2022-10-16T14:27:35;101232.03;;;17.57;78.51
22333;BME280;11334;36.986;-121.936;2022-10-16T14:30:12;101228.97;;;17.60;77.69